.
WxDataArchive / Data Records for 2006-10-14
2006-10-13 October 2006 2006-10-15

Data Records for Saturday, 14 October 2006

Time	Temp	Chill	HIndex	Humid	Dewpt	 Wind 	HiWind	WindDir	Rain 	Barom 
-----	----	-----	------	-----	-----	------	------	-------	-----	----- 
00:00	43.5	43.5	43.5	46	24.1	2	5	248	0.00	29.708 
00:05	43.5	43.5	43.5	46	24.1	2	7	248	0.00	29.708 
00:10	43.5	43.5	43.5	46	24.1	2	5	270	0.00	29.708 
00:15	43.6	43.6	43.6	46	24.2	3	6	248	0.00	29.703 
00:20	43.8	43.8	43.8	45	23.9	3	9	248	0.00	29.703 
00:25	43.8	43.8	43.8	45	23.9	2	6	248	0.00	29.703 
00:30	43.5	43.5	43.5	47	24.6	1	4	248	0.00	29.701 
00:35	43.2	43.2	43.2	47	24.3	2	6	248	0.00	29.701 
00:40	43.2	43.2	43.2	47	24.3	3	7	248	0.00	29.701 
00:45	43.1	43.1	43.1	47	24.3	3	9	248	0.00	29.697 
00:50	43.1	43.1	43.1	48	24.8	2	6	248	0.00	29.697 
00:55	42.9	42.9	42.9	48	24.6	2	6	248	0.00	29.697 
01:00	42.9	42.9	42.9	48	24.6	3	5	248	0.00	29.700 
01:05	42.8	42.8	42.8	48	24.5	2	5	248	0.00	29.700 
01:10	42.8	42.8	42.8	48	24.5	2	7	270	0.00	29.700 
01:15	42.8	42.8	42.8	48	24.5	3	5	270	0.00	29.697 
01:20	42.8	42.8	42.8	47	24.0	2	5	270	0.00	29.697 
01:25	42.8	42.8	42.8	48	24.5	2	5	248	0.00	29.697 
01:30	42.6	42.6	42.6	48	24.3	1	6	248	0.00	29.694 
01:35	42.8	42.8	42.8	47	24.0	3	7	248	0.00	29.694 
01:40	42.8	42.8	42.8	46	23.5	3	6	270	0.00	29.694 
01:45	42.8	42.8	42.8	47	24.0	2	9	248	0.00	29.695 
01:50	42.8	42.8	42.8	47	24.0	3	9	248	0.00	29.695 
01:55	42.8	42.8	42.8	47	24.0	2	5	248	0.00	29.695 
02:00	42.6	42.6	42.6	47	23.8	3	6	248	0.00	29.697 
02:05	42.6	42.6	42.6	47	23.8	2	6	248	0.00	29.697 
02:10	42.6	40.3	42.6	46	23.3	4	7	270	0.00	29.697 
02:15	42.8	42.8	42.8	46	23.5	3	5	270	0.00	29.702 
02:20	42.6	42.6	42.6	46	23.3	3	12	248	0.00	29.702 
02:25	42.6	42.6	42.6	47	23.8	3	6	270	0.00	29.702 
02:30	42.5	42.5	42.5	46	23.2	3	10	270	0.00	29.705 
02:35	42.5	42.5	42.5	46	23.2	3	12	248	0.00	29.705 
02:40	42.3	42.3	42.3	46	23.0	3	10	270	0.00	29.705 
02:45	42.3	42.3	42.3	47	23.5	3	7	270	0.00	29.707 
02:50	42.2	42.2	42.2	47	23.4	3	6	248	0.00	29.707 
02:55	42.1	42.1	42.1	47	23.3	3	6	270	0.00	29.707 
03:00	42.1	42.1	42.1	47	23.3	3	9	248	0.00	29.709 
03:05	42.1	42.1	42.1	47	23.3	3	9	270	0.00	29.709 
03:10	42.1	42.1	42.1	47	23.3	2	5	248	0.00	29.709 
03:15	41.9	41.9	41.9	47	23.2	3	9	270	0.00	29.714 
03:20	41.9	41.9	41.9	47	23.2	3	9	270	0.00	29.714 
03:25	41.9	41.9	41.9	47	23.2	3	10	248	0.00	29.714 
03:30	41.9	41.9	41.9	47	23.2	3	10	248	0.00	29.719 
03:35	41.8	41.8	41.8	47	23.1	3	7	270	0.00	29.719 
03:40	41.6	41.6	41.6	48	23.4	2	5	270	0.00	29.719 
03:45	41.5	41.5	41.5	48	23.3	3	9	248	0.00	29.720 
03:50	41.3	41.3	41.3	48	23.1	2	6	270	0.00	29.720 
03:55	41.2	41.2	41.2	48	23.0	2	5	248	0.00	29.720 
04:00	41.1	41.1	41.1	48	22.9	2	6	248	0.00	29.720 
04:05	40.9	40.9	40.9	48	22.7	3	7	248	0.00	29.720 
04:10	40.9	40.9	40.9	48	22.7	2	9	270	0.00	29.720 
04:15	40.8	40.8	40.8	48	22.6	3	7	270	0.00	29.713 
04:20	40.6	40.6	40.6	49	23.0	2	5	270	0.00	29.713 
04:25	40.5	40.5	40.5	49	22.9	2	6	248	0.00	29.713 
04:30	40.5	40.5	40.5	49	22.9	2	9	248	0.00	29.722 
04:35	40.3	40.3	40.3	49	22.7	2	6	270	0.00	29.722 
04:40	40.2	40.2	40.2	49	22.6	2	5	248	0.00	29.722 
04:45	40.2	40.2	40.2	49	22.6	2	6	270	0.00	29.727 
04:50	40.1	40.1	40.1	49	22.5	2	7	248	0.00	29.727 
04:55	39.9	39.9	39.9	50	22.8	2	3	248	0.00	29.727 
05:00	39.9	39.9	39.9	50	22.8	2	4	248	0.00	29.725 
05:05	39.8	39.8	39.8	50	22.7	1	5	248	0.00	29.725 
05:10	39.6	39.6	39.6	50	22.5	2	5	248	0.00	29.725 
05:15	39.6	39.6	39.6	50	22.5	2	5	270	0.00	29.736 
05:20	39.6	39.6	39.6	50	22.5	2	6	248	0.00	29.736 
05:25	39.6	39.6	39.6	50	22.5	2	4	270	0.00	29.736 
05:30	39.6	39.6	39.6	50	22.5	2	5	270	0.00	29.739 
05:35	39.6	39.6	39.6	50	22.5	2	6	248	0.00	29.739 
05:40	39.5	39.5	39.5	51	22.9	2	7	270	0.00	29.739 
05:45	39.3	39.3	39.3	51	22.7	1	3	248	0.00	29.755 
05:50	39.2	39.2	39.2	51	22.6	2	5	248	0.00	29.755 
05:55	39.2	39.2	39.2	51	22.6	2	5	248	0.00	29.755 
06:00	39.2	39.2	39.2	51	22.6	2	4	248	0.00	29.758 
06:05	39.1	39.1	39.1	51	22.5	2	6	248	0.00	29.758 
06:10	39.1	39.1	39.1	51	22.5	2	5	248	0.00	29.758 
06:15	38.9	38.9	38.9	52	22.8	2	5	248	0.00	29.763 
06:20	38.8	38.8	38.8	53	23.2	2	5	248	0.00	29.763 
06:25	38.6	38.6	38.6	52	22.5	1	4	248	0.00	29.763 
06:30	38.5	38.5	38.5	52	22.4	2	5	270	0.00	29.771 
06:35	38.5	38.5	38.5	53	22.9	2	4	270	0.00	29.771 
06:40	38.5	38.5	38.5	53	22.9	2	6	248	0.00	29.771 
06:45	38.3	38.3	38.3	53	22.7	1	6	248	0.00	29.777 
06:50	38.3	38.3	38.3	53	22.7	2	5	270	0.00	29.777 
06:55	38.3	38.3	38.3	53	22.7	2	6	248	0.00	29.777 
07:00	38.3	38.3	38.3	54	23.1	1	3	248	0.00	29.781 
07:05	38.2	38.2	38.2	53	22.6	2	6	270	0.00	29.781 
07:10	38.0	38.0	38.0	54	22.9	1	3	248	0.00	29.781 
07:15	37.8	37.8	37.8	54	22.7	1	4	248	0.00	29.792 
07:20	37.8	37.8	37.8	54	22.7	2	4	248	0.00	29.792 
07:25	37.6	37.6	37.6	55	22.9	1	3	248	0.00	29.792 
07:30	37.3	37.3	37.3	55	22.6	1	3	248	0.00	29.794 
07:35	37.3	37.3	37.3	55	22.6	1	4	248	0.00	29.794 
07:40	37.2	37.2	37.2	56	23.0	1	3	248	0.00	29.794 
07:45	37.0	37.0	37.0	57	23.2	1	3	248	0.00	29.808 
07:50	36.9	36.9	36.9	57	23.1	1	3	248	0.00	29.808 
07:55	36.8	36.8	36.8	57	23.0	1	2	248	0.00	29.808 
08:00	36.8	36.8	36.8	57	23.0	1	3	270	0.00	29.820 
08:05	36.8	36.8	36.8	58	23.4	1	4	248	0.00	29.820 
08:10	36.8	36.8	36.8	58	23.4	1	3	292	0.00	29.820 
08:15	36.6	36.6	36.6	58	23.2	1	3	248	0.00	29.826 
08:20	36.8	36.8	36.8	58	23.4	1	4	248	0.00	29.826 
08:25	36.8	36.8	36.8	58	23.4	1	4	248	0.00	29.826 
08:30	36.9	36.9	36.9	58	23.5	1	2	248	0.00	29.835 
08:35	36.9	36.9	36.9	58	23.5	1	3	248	0.00	29.835 
08:40	37.0	37.0	37.0	58	23.6	1	3	248	0.00	29.835 
08:45	37.3	37.3	37.3	58	23.9	2	4	248	0.00	29.840 
08:50	37.5	37.5	37.5	58	24.1	1	4	248	0.00	29.840 
08:55	37.6	37.6	37.6	58	24.2	1	4	248	0.00	29.840 
09:00	37.8	37.8	37.8	58	24.4	1	3	248	0.00	29.850 
09:05	38.2	38.2	38.2	58	24.7	2	4	270	0.00	29.850 
09:10	38.5	38.5	38.5	58	25.0	1	3	248	0.00	29.850 
09:15	38.6	38.6	38.6	58	25.1	1	3	248	0.00	29.855 
09:20	38.8	38.8	38.8	57	24.9	2	3	270	0.00	29.855 
09:25	39.1	39.1	39.1	57	25.2	2	4	315	0.00	29.855 
09:30	39.5	39.5	39.5	58	26.0	1	4	292	0.00	29.867 
09:35	39.8	39.8	39.8	57	25.8	2	4	248	0.00	29.867 
09:40	40.2	40.2	40.2	55	25.3	2	4	270	0.00	29.867 
09:45	40.5	40.5	40.5	56	26.1	2	4	270	0.00	29.873 
09:50	40.9	40.9	40.9	55	26.0	2	5	270	0.00	29.873 
09:55	41.2	41.2	41.2	55	26.3	2	4	248	0.00	29.873 
10:00	41.6	41.6	41.6	54	26.2	2	4	292	0.00	29.884 
10:05	41.9	41.9	41.9	55	26.9	2	5	248	0.00	29.884 
10:10	42.3	42.3	42.3	54	26.9	2	4	270	0.00	29.884 
10:15	42.8	42.8	42.8	54	27.3	2	5	270	0.00	29.880 
10:20	43.3	43.3	43.3	54	27.8	2	3	292	0.00	29.880 
10:25	43.6	43.6	43.6	51	26.7	2	4	270	0.00	29.880 
10:30	43.9	43.9	43.9	53	27.9	2	4	270	0.00	29.885 
10:35	44.2	44.2	44.2	51	27.2	3	5	270	0.00	29.885 
10:40	44.6	44.6	44.6	51	27.6	3	6	315	0.00	29.885 
10:45	44.6	44.6	44.6	50	27.1	2	4	315	0.00	29.897 
10:50	45.1	45.1	45.1	51	28.1	2	4	270	0.00	29.897 
10:55	45.4	45.4	45.4	49	27.4	3	6	270	0.00	29.897 
11:00	45.4	45.4	45.4	50	27.9	3	5	270	0.00	29.900 
11:05	45.5	45.5	45.5	49	27.5	3	9	270	0.00	29.900 
11:10	45.8	45.8	45.8	50	28.2	2	5	292	0.00	29.900 
11:15	46.1	46.1	46.1	48	27.5	2	4	270	0.00	29.907 
11:20	46.7	46.7	46.7	50	29.1	2	5	292	0.00	29.907 
11:25	46.5	46.5	46.5	47	27.4	2	5	315	0.00	29.907 
11:30	46.2	46.2	46.2	45	26.0	3	9	270	0.00	29.912 
11:35	46.5	46.5	46.5	46	26.8	2	5	270	0.00	29.912 
11:40	47.0	47.0	47.0	46	27.3	2	5	315	0.00	29.912 
11:45	46.8	46.8	46.8	44	26.0	3	6	338	0.00	29.918 
11:50	47.4	47.4	47.4	46	27.7	3	5	292	0.00	29.918 
11:55	47.0	47.0	47.0	42	25.1	3	6	315	0.00	29.918 
12:00	46.8	46.8	46.8	44	26.0	2	5	315	0.00	29.923 
12:05	47.6	47.6	47.6	46	27.9	2	3	292	0.00	29.923 
12:10	48.0	48.0	48.0	45	27.7	3	6	270	0.00	29.923 
12:15	48.2	48.2	48.2	42	26.2	2	4	270	0.00	29.918 
12:20	48.6	48.6	48.6	43	27.1	2	5	315	0.00	29.918 
12:25	48.6	48.6	48.6	43	27.1	2	11	315	0.00	29.918 
12:30	48.5	48.5	48.5	44	27.6	2	6	270	0.00	29.920 
12:35	48.6	48.6	48.6	42	26.6	2	4	248	0.00	29.920 
12:40	49.1	49.1	49.1	42	27.0	3	7	270	0.00	29.920 
12:45	48.9	48.9	48.9	44	28.0	3	6	270	0.00	29.925 
12:50	48.9	48.9	48.9	44	28.0	2	4	270	0.00	29.925 
12:55	49.1	49.1	49.1	45	28.7	3	7	270	0.00	29.925 
13:00	49.1	49.1	49.1	42	27.0	3	5	270	0.00	29.917 
13:05	49.1	49.1	49.1	43	27.6	2	5	248	0.00	29.917 
13:10	49.4	49.4	49.4	43	27.9	2	5	248	0.00	29.917 
13:15	49.4	49.4	49.4	44	28.4	3	5	270	0.00	29.911 
13:20	49.6	49.6	49.6	42	27.5	3	6	270	0.00	29.911 
13:25	49.8	49.8	49.8	46	29.9	1	4	292	0.00	29.911 
13:30	49.9	49.9	49.9	42	27.7	3	7	270	0.00	29.909 
13:35	49.9	49.9	49.9	42	27.7	3	7	248	0.00	29.909 
13:40	49.9	49.9	49.9	41	27.1	2	6	270	0.00	29.909 
13:45	50.1	50.1	50.1	38	25.5	3	6	292	0.00	29.909 
13:50	49.8	49.8	49.8	36	23.9	3	6	315	0.00	29.909 
13:55	49.8	49.8	49.8	39	25.9	2	5	292	0.00	29.909 
14:00	50.1	50.1	50.1	40	26.7	2	5	315	0.00	29.908 
14:05	50.4	50.4	50.4	39	26.4	2	5	292	0.00	29.908 
14:10	50.4	50.4	50.4	40	27.0	3	9	292	0.00	29.908 
14:15	50.5	50.5	50.5	38	25.9	2	5	270	0.00	29.908 
14:20	50.5	50.5	50.5	37	25.2	4	11	270	0.00	29.908 
14:25	50.8	50.8	50.8	39	26.7	2	11	270	0.00	29.908 
14:30	50.8	50.8	50.8	38	26.1	3	6	270	0.00	29.897 
14:35	50.8	50.8	50.8	38	26.1	2	7	248	0.00	29.897 
14:40	51.0	51.0	51.0	38	26.3	2	10	248	0.00	29.897 
14:45	51.0	51.0	51.0	39	26.9	2	5	248	0.00	29.889 
14:50	51.3	51.3	51.3	42	29.0	2	4	270	0.00	29.889 
14:55	51.4	51.4	51.4	40	27.9	2	6	270	0.00	29.889 
15:00	51.4	51.4	51.4	38	26.7	3	6	270	0.00	29.889 
15:05	51.6	51.6	51.6	37	26.2	3	10	248	0.00	29.889 
15:10	51.3	51.3	51.3	37	25.9	3	5	270	0.00	29.889 
15:15	51.3	51.3	51.3	38	26.6	3	6	270	0.00	29.892 
15:20	51.3	51.3	51.3	38	26.6	3	9	270	0.00	29.892 
15:25	51.4	51.4	51.4	38	26.7	2	4	270	0.00	29.892 
15:30	51.7	51.7	51.7	38	26.9	2	5	270	0.00	29.892 
15:35	51.6	51.6	51.6	36	25.5	3	6	270	0.00	29.892 
15:40	51.6	51.6	51.6	37	26.2	3	9	270	0.00	29.892 
15:45	51.7	51.7	51.7	35	24.9	3	7	270	0.00	29.892 
15:50	51.9	51.9	51.9	33	23.7	3	8	270	0.00	29.892 
15:55	52.0	52.0	52.0	34	24.5	4	10	270	0.00	29.892 
16:00	51.7	51.7	51.7	35	24.9	3	7	248	0.00	29.889 
16:05	51.7	51.7	51.7	34	24.2	3	6	270	0.00	29.889 
16:10	51.9	51.9	51.9	33	23.7	3	10	248	0.00	29.889 
16:15	51.6	51.6	51.6	36	25.5	3	9	270	0.00	29.892 
16:20	51.7	51.7	51.7	34	24.2	3	9	270	0.00	29.892 
16:25	51.6	51.6	51.6	35	24.9	2	5	270	0.00	29.892 
16:30	51.4	51.4	51.4	35	24.7	3	5	270	0.00	29.895 
16:35	51.4	51.4	51.4	35	24.7	2	6	248	0.00	29.895 
16:40	51.1	51.1	51.1	35	24.4	4	7	270	0.00	29.895 
16:45	51.0	51.0	51.0	35	24.3	3	6	270	0.00	29.895 
16:50	51.0	51.0	51.0	34	23.6	4	7	270	0.00	29.895 
16:55	50.7	50.7	50.7	36	24.7	3	9	270	0.00	29.895 
17:00	51.0	51.0	51.0	38	26.3	2	6	248	0.00	29.899 
17:05	51.1	51.1	51.1	36	25.1	2	4	248	0.00	29.899 
17:10	51.0	51.0	51.0	35	24.3	3	5	270	0.00	29.899 
17:15	50.7	50.7	50.7	38	26.0	3	10	248	0.00	29.906 
17:20	50.7	50.7	50.7	35	24.1	3	9	270	0.00	29.906 
17:25	50.5	50.5	50.5	38	25.9	2	7	270	0.00	29.906 
17:30	50.5	50.5	50.5	35	23.9	4	9	248	0.00	29.908 
17:35	50.4	50.4	50.4	38	25.8	2	5	270	0.00	29.908 
17:40	50.4	50.4	50.4	35	23.8	3	6	270	0.00	29.908 
17:45	50.1	50.1	50.1	36	24.2	2	5	270	0.00	29.910 
17:50	50.1	50.1	50.1	36	24.2	2	5	292	0.00	29.910 
17:55	49.9	49.9	49.9	36	24.0	3	5	270	0.00	29.910 
18:00	49.8	49.8	49.8	36	23.9	2	5	248	0.00	29.911 
18:05	49.8	49.8	49.8	37	24.6	2	3	248	0.00	29.911 
18:10	49.6	49.6	49.6	37	24.4	2	6	270	0.00	29.911 
18:15	49.5	49.5	49.5	38	25.0	1	4	248	0.00	29.912 
18:20	49.4	49.4	49.4	37	24.2	2	6	248	0.00	29.912 
18:25	49.2	49.2	49.2	37	24.1	2	4	248	0.00	29.912 
18:30	48.9	48.9	48.9	39	25.0	2	4	292	0.00	29.915 
18:35	48.8	48.8	48.8	38	24.3	1	2	292	0.00	29.915 
18:40	48.5	48.5	48.5	38	24.1	2	5	248	0.00	29.915 
18:45	48.3	48.3	48.3	39	24.5	1	3	248	0.00	29.918 
18:50	48.0	48.0	48.0	39	24.2	1	3	248	0.00	29.918 
18:55	47.9	47.9	47.9	40	24.8	1	4	270	0.00	29.918 
19:00	47.6	47.6	47.6	41	25.1	1	2	248	0.00	29.928 
19:05	47.3	47.3	47.3	41	24.8	0	2	248	0.00	29.928 
19:10	47.0	47.0	47.0	43	25.7	0	2	248	0.00	29.928 
19:15	46.7	46.7	46.7	43	25.4	0	2	248	0.00	29.932 
19:20	46.4	46.4	46.4	43	25.1	0	1	248	0.00	29.932 
19:25	46.1	46.1	46.1	44	25.4	0	1	248	0.00	29.932 
19:30	45.8	45.8	45.8	45	25.7	0	1	248	0.00	29.936 
19:35	45.5	45.5	45.5	44	24.9	0	1	248	0.00	29.936 
19:40	45.2	45.2	45.2	45	25.1	0	1	248	0.00	29.936 
19:45	44.9	44.9	44.9	47	25.9	0	0	---	0.00	29.939 
19:50	44.5	44.5	44.5	48	26.0	0	1	248	0.00	29.939 
19:55	44.2	44.2	44.2	48	25.8	0	1	248	0.00	29.939 
20:00	43.9	43.9	43.9	50	26.5	0	0	---	0.00	29.947 
20:05	43.5	43.5	43.5	51	26.6	0	0	---	0.00	29.947 
20:10	43.1	43.1	43.1	52	26.7	0	0	---	0.00	29.947 
20:15	42.6	42.6	42.6	52	26.2	0	0	---	0.00	29.951 
20:20	42.3	42.3	42.3	54	26.9	0	0	---	0.00	29.951 
20:25	41.9	41.9	41.9	55	26.9	0	0	---	0.00	29.951 
20:30	41.6	41.6	41.6	55	26.6	0	0	---	0.00	29.952 
20:35	41.2	41.2	41.2	56	26.7	0	0	---	0.00	29.952 
20:40	40.9	40.9	40.9	57	26.9	0	0	---	0.00	29.952 
20:45	40.5	40.5	40.5	58	26.9	0	0	---	0.00	29.956 
20:50	40.2	40.2	40.2	59	27.0	0	0	---	0.00	29.956 
20:55	39.9	39.9	39.9	59	26.7	0	0	---	0.00	29.956 
21:00	39.8	39.8	39.8	61	27.5	0	0	---	0.00	29.960 
21:05	39.5	39.5	39.5	62	27.6	0	0	---	0.00	29.960 
21:10	39.3	39.3	39.3	62	27.4	0	0	---	0.00	29.960 
21:15	39.1	39.1	39.1	62	27.2	0	0	---	0.00	29.966 
21:20	38.8	38.8	38.8	64	27.7	0	0	---	0.00	29.966 
21:25	38.5	38.5	38.5	65	27.8	0	0	---	0.00	29.966 
21:30	38.3	38.3	38.3	68	28.7	0	0	---	0.00	29.967 
21:35	38.2	38.2	38.2	66	27.9	0	0	---	0.00	29.967 
21:40	38.0	38.0	38.0	67	28.0	0	0	---	0.00	29.967 
21:45	38.0	38.0	38.0	66	27.7	0	0	---	0.00	29.968 
21:50	38.0	38.0	38.0	68	28.4	0	0	---	0.00	29.968 
21:55	38.0	38.0	38.0	66	27.7	0	0	---	0.00	29.968 
22:00	38.0	38.0	38.0	66	27.7	0	0	---	0.00	29.970 
22:05	38.2	38.2	38.2	66	27.9	0	0	---	0.00	29.970 
22:10	38.2	38.2	38.2	67	28.2	0	0	---	0.00	29.970 
22:15	38.0	38.0	38.0	66	27.7	0	0	---	0.00	29.974 
22:20	38.0	38.0	38.0	66	27.7	0	0	---	0.00	29.974 
22:25	38.2	38.2	38.2	66	27.9	0	1	248	0.00	29.974 
22:30	38.3	38.3	38.3	65	27.6	0	1	248	0.00	29.978 
22:35	38.6	38.6	38.6	64	27.5	0	1	248	0.00	29.978 
22:40	38.8	38.8	38.8	64	27.7	0	1	248	0.00	29.978 
22:45	38.8	38.8	38.8	64	27.7	0	1	248	0.00	29.976 
22:50	38.9	38.9	38.9	63	27.4	0	1	248	0.00	29.976 
22:55	38.9	38.9	38.9	63	27.4	0	1	248	0.00	29.976 
23:00	38.9	38.9	38.9	63	27.4	0	1	248	0.00	29.978 
23:05	39.1	39.1	39.1	63	27.6	0	1	248	0.00	29.978 
23:10	39.2	39.2	39.2	63	27.7	0	1	248	0.00	29.978 
23:15	39.3	39.3	39.3	62	27.4	0	2	248	0.00	29.976 
23:20	39.3	39.3	39.3	62	27.4	0	1	248	0.00	29.976 
23:25	39.3	39.3	39.3	62	27.4	0	1	248	0.00	29.976 
23:30	39.3	39.3	39.3	62	27.4	0	1	248	0.00	29.978 
23:35	39.3	39.3	39.3	62	27.4	0	2	248	0.00	29.978 
23:40	39.2	39.2	39.2	62	27.3	0	1	248	0.00	29.978 
23:45	39.2	39.2	39.2	63	27.7	0	1	248	0.00	29.980 
23:50	39.1	39.1	39.1	63	27.6	0	1	248	0.00	29.980 
23:55	39.1	39.1	39.1	63	27.6	0	1	248	0.00	29.980 

CoCoRaHS
IN-AL-39
A2 Web Hosting
Creative Commons License
GoDaddy
Look for:

loaded 2017-10-18 07:43:10 • last modified 2010-11-18 10:43:29
Privacy PolicyDisclaimer
• wx.awcolley.com is powered by PmWiki v.2002016 •
• all content (unless otherwise noted) © 2017 A W Colley